AirNav   Air Wisconsin Up To $57,000 Bonus
 
 268 users online  

39R Flyin' B Airport
Houston, Texas, USA

GOING TO HOUSTON?


FAA INFORMATION EFFECTIVE 07 NOVEMBER 2019

Location

FAA Identifier: 39R
Lat/Long: 29-32-15.4000N 095-25-25.1000W
29-32.256667N 095-25.418333W
29.5376111,-95.4236389
(estimated)
Elevation: 73 ft. / 22 m (estimated)
Variation: 06E (1985)
From city: 15 miles S of HOUSTON, TX
Time zone: UTC -6 (UTC -5 during Daylight Saving Time)
Zip code: 77583

Airport Operations

Airport use: Open to the public
Control tower: no
ARTCC: HOUSTON CENTER
FSS: MONTGOMERY COUNTY FLIGHT SERVICE STATION
NOTAMs facility: CXO (NOTAM-D service available)
Attendance: UNATNDD
Wind indicator: yes
Segmented circle: no

Airport Communications

CTAF: 122.9
WX AWOS-3 at AXH (3 nm SW): 123.625 (281-431-6572)
WX ASOS at LVJ (10 nm E): 118.525 (281-992-1853)
WX ASOS at HOU (10 nm NE): PHONE 713-847-1462
WX ASOS at SGR (13 nm NW): 118.125 (281-242-7605)

Nearby radio navigation aids

VOR radial/distance  VOR name  Freq  Var
HUBr222/10.4HOBBY VOR/DME117.1005E
IAHr184/25.5HUMBLE VORTAC116.6005E
VUHr293/33.2SCHOLES VOR/DME113.0006E
MHFr262/35.3TRINITY VOR/DME113.6007E

 
NDB name  Hdg/Dist  Freq  Var  ID
GALVESTON281/37.020608EGLS --. .-.. ...

Airport Services

Runway Information

Runway 17/35

Dimensions: 2100 x 75 ft. / 640 x 23 m
Surface: turf, in fair condition
RY SFC HAS ROUGH AREAS & UNEVEN WITH TIRE RUTS.
RUNWAY 17  RUNWAY 35
Latitude: 29-32.430290N29-32.083907N
Longitude: 095-25.424195W095-25.411467W
Elevation: 68.0 ft.73.0 ft.
Traffic pattern: leftleft
Runway heading: 172 magnetic, 178 true352 magnetic, 358 true
Obstructions: 30 ft. pline, 20 ft. from runway5 ft. hill, 90 ft. right of centerline

Airport Ownership and Management from official FAA records

Ownership: Privately-owned
Owner: SMITH PARK 21
4610 CURRY RD
MANVEL, TX 77578
Phone 713-443-1850
ARPT ADDRESS 1422 CO RD 59, ROSHARON, TX.
Manager: DAVID PARKER
4610 CURRY RD
HOUSTON, TX 77578
Phone 713-443-1850

Additional Remarks

BAYOU AT SOUTH END OF RWY.
GND DROPS OFF SHARPLY AT END OF RY 17 20 FT FM THLD.
FOR CD CTC HOUSTON APCH AT 281-443-5844 TO CNL IFR CALL 281-443-5888.

Instrument Procedures

There are no published instrument procedures at 39R.

Some nearby airports with instrument procedures:

KAXH - Houston Southwest Airport (3 nm SW)
KLVJ - Pearland Regional Airport (10 nm E)
KHOU - William P Hobby Airport (10 nm NE)
KSGR - Sugar Land Regional Airport (13 nm NW)
KEFD - Ellington Airport (14 nm E)
 
Loc | Ops | Rwys | IFR | FBO | Links
Com | Nav | Svcs | Stats | Notes
Area around 39R (Flyin' B Airport)
 
Road maps at: MapQuest Bing Google
 
Aerial photo
No photo
 
Sectional chart

 
Airport distance calculator
Flying to Flyin' B Airport? Find the distance to fly.

From to 39R

Sunrise and sunset
Times for 14-Nov-2019
 Local
(UTC-6)
 Zulu
(UTC)
Morning civil twilight06:2112:21
Sunrise06:4612:46
Sunset17:2623:26
Evening civil twilight17:5123:51

Current date and time
Zulu (UTC)  14-Nov-2019 09:33:10
Local (UTC-6)  14-Nov-2019 03:33:10
 
METAR
KAXH 
3nm SW 
140915Z AUTO 07005KT 10SM BKN026 OVC032 08/04 A3017 RMK AO2 T00820040
KLVJ 
9nm E 
140853Z AUTO 07008KT 10SM SCT041 OVC049 09/03 A3017 RMK AO2 SLP214 T00940028 58006
KHOU 
9nm NE 
140853Z 07010KT 10SM OVC042 09/02 A3016 RMK AO2 SLP216 T00890022 58006
KSGR 
13nm W 
140853Z AUTO 06006KT 10SM BKN024 OVC031 09/03 A3016 RMK AO2 SLP213 T00890033 58005
KEFD 
14nm E 
140850Z 05006KT 10SM OVC040 08/03 A3014
TAF
KHOU 
9nm NE 
140701Z 1407/1506 05007KT P6SM OVC045 FM140900 VRB04KT 6SM -SHRA SCT015 OVC030 FM141200 03007KT 6SM -SHRA OVC015 FM141500 04009KT 6SM -SHRA OVC010 FM141900 02011KT 4SM -SHRA OVC007 FM150100 36010KT P6SM VCSH SCT013 OVC050
KSGR 
13nm W 
140811Z 1408/1506 06006KT P6SM OVC040 FM140900 VRB04KT 6SM -SHRA SCT019 OVC025 FM141100 04007KT 6SM -SHRA SCT005 OVC010 FM141500 04007KT 6SM -SHRA OVC007 FM141900 02009KT 4SM -SHRA OVC007 FM150200 01009KT P6SM VCSH SCT015 OVC025
KEFD 
14nm E 
140400Z 1404/1510 VRB06KT 9999 SCT030 BKN050 QNH3010INS BECMG 1405/1406 05009KT 9000 -RA SCT015 BKN025 QNH3010INS BECMG 1412/1413 05012KT 9000 -RA BKN008 QNH3013INS BECMG 1422/1423 03006KT 9999 NSW SCT025 BKN050 QNH3020INS BECMG 1508/1509 01006KT 9999 SKC QNH3025INS TX07/1420Z TN06/1413Z
NOTAMs
Click for the latest NOTAMs
NOTAMs are issued by the DoD/FAA and will open in a separate window not controlled by AirNav.

 

 
 

Would you like to see your business listed on this page?

 If your business provides an interesting product or service to pilots, flight crews, aircraft, or users of the Flyin' B Airport, you should consider listing it here.  To start the listing process, click on the button below
 
Add a business
 

Other Pages about Flyin' B Airport

Update a link
 
Copyright © AirNav, LLC. All rights reserved. Privacy Policy  Contact